Flight Track Log - Related Links

Times and Time Zones

All times are in EDT time to prevent confusion due to time zone crossing. See the SWA1731 flight status page for this flight to view local times or setup timezone preferences in your user account.

Time Position Orientation Groundspeed Altitude Reporting Facility
EDT Latitude Longitude Course Direction KTS MPH feet Rate Location/Type
Tue 03:08:40 PM 33.6500 -84.4500 252° West 162 186 2,000  Level Atlanta TRACON
Tue 03:09:40 PM 33.6500 -84.5167 270° West 235 270 3,400 2,150 Climbing Atlanta TRACON
Tue 03:10:40 PM 33.6667 -84.6000 284° West 267 307 6,300 2,876 Climbing Atlanta TRACON
Tue 03:11:41 PM 33.6833 -84.7000 281° West 275 316 9,200 2,258 Climbing Atlanta TRACON
Tue 03:13:54 PM 33.6617 -84.9322 264° West 332 382 13,600 2,052 Climbing Atlanta Center
Tue 03:14:00 PM 33.7967 -84.6285 252° West  Level FlightAware Approximate
Tue 03:14:54 PM 33.6544 -85.0569 266° West 362 417 15,800  Level Atlanta Center
Tue 03:15:54 PM 33.6386 -85.1817 261° West 385 443 18,100 2,300 Climbing Atlanta Center
Tue 03:16:54 PM 33.6500 -85.3164 276° West 396 456 20,400 2,200 Climbing Atlanta Center
Tue 03:17:54 PM 33.6756 -85.4467 283° West 405 466 22,500 1,600 Climbing Atlanta Center
Tue 03:18:54 PM 33.6969 -85.5819 281° West 414 476 23,600 1,300 Climbing Atlanta Center
Tue 03:19:54 PM 33.7203 -85.7072 283° West 420 483 25,100 1,600 Climbing Atlanta Center
Tue 03:20:54 PM 33.7475 -85.8525 283° West 420 483 26,800 1,600 Climbing Atlanta Center
Tue 03:21:54 PM 33.7683 -85.9981 280° West 426 490 28,300 1,650 Climbing Atlanta Center
Tue 03:22:54 PM 33.7950 -86.1436 282° West 437 503 30,100 1,350 Climbing Atlanta Center
Tue 03:23:54 PM 33.8194 -86.2917 281° West 442 509 31,000 450 Climbing Atlanta Center
Tue 03:24:54 PM 33.8439 -86.4350 282° West 447 514 31,000  Level Atlanta Center
Tue 03:25:54 PM 33.8703 -86.5808 282° West 447 514 31,000 300 Level Atlanta Center
Tue 03:26:54 PM 33.8944 -86.7267 281° West 447 514 31,600 1,243 Climbing Atlanta Center
Tue 03:28:43 PM 33.9350 -86.9872 281° West 477 549 34,500 1,562 Climbing Memphis Center
Tue 03:29:43 PM 33.9575 -87.1267 281° West 447 514 36,000 750 Climbing Memphis Center
Tue 03:30:43 PM 33.9861 -87.2708 283° West 420 483 36,000  Level Memphis Center
Tue 03:31:43 PM 34.0042 -87.4131 279° West 412 474 36,000  Level Memphis Center
Tue 03:32:43 PM 34.0133 -87.5381 275° West 422 486 36,000  Level Memphis Center
Tue 03:33:43 PM 34.0247 -87.6781 276° West 422 486 36,000  Level Memphis Center
Tue 03:34:43 PM 34.0444 -87.8203 280° West 422 486 36,000  Level Memphis Center
Tue 03:35:43 PM 34.0661 -87.9600 281° West 428 493 36,000  Level Memphis Center
Tue 03:36:43 PM 34.0917 -88.0997 282° West 428 493 36,000  Level Memphis Center
Tue 03:37:43 PM 34.1131 -88.2572 279° West 433 498 36,000  Level Memphis Center
Tue 03:38:43 PM 34.1364 -88.3997 281° West 433 498 36,000  Level Memphis Center
Tue 03:39:43 PM 34.1594 -88.5422 281° West 433 498 36,000  Level Memphis Center
Tue 03:40:43 PM 34.1822 -88.6875 281° West 433 498 36,000  Level Memphis Center
Tue 03:41:43 PM 34.2006 -88.8050 281° West 438 504 36,000  Level Memphis Center
Tue 03:42:43 PM 34.2256 -88.9706 280° West 429 494 36,000  Level Memphis Center
Tue 03:43:43 PM 34.2478 -89.1158 281° West 434 499 36,000  Level Memphis Center
Tue 03:44:43 PM 34.2681 -89.2614 280° West 434 499 36,000  Level Memphis Center
Tue 03:45:43 PM 34.2922 -89.4069 281° West 444 511 36,000  Level Memphis Center
Tue 03:46:43 PM 34.3097 -89.5400 279° West 444 511 36,000  Level Memphis Center
Tue 03:47:43 PM 34.3317 -89.6856 280° West 444 511 36,000  Level Memphis Center
Tue 03:48:43 PM 34.3531 -89.8339 280° West 444 511 36,000  Level Memphis Center
Tue 03:49:43 PM 34.3744 -89.9847 280° West 450 518 36,000  Level Memphis Center
Tue 03:50:43 PM 34.4000 -90.1483 281° West 450 518 36,000  Level Memphis Center
Tue 03:51:43 PM 34.4231 -90.2992 281° West 450 518 36,000  Level Memphis Center
Tue 03:52:43 PM 34.4439 -90.4478 280° West 455 524 36,000  Level Memphis Center
Tue 03:53:43 PM 34.4647 -90.5989 280° West 455 524 36,000  Level Memphis Center
Tue 03:54:43 PM 34.4853 -90.7453 280° West 448 516 36,000  Level Memphis Center
Tue 03:55:43 PM 34.5075 -90.8939 280° West 448 516 36,000  Level Memphis Center
Tue 03:56:43 PM 34.5278 -91.0428 279° West 448 516 36,000  Level Memphis Center
Tue 03:57:43 PM 34.5456 -91.1767 279° West 448 516 36,000  Level Memphis Center
Tue 03:58:43 PM 34.5656 -91.3281 279° West 453 521 36,000  Level Memphis Center
Tue 03:59:43 PM 34.5850 -91.4747 279° West 453 521 36,000  Level Memphis Center
Tue 04:00:43 PM 34.6025 -91.6239 278° West 448 516 36,000 800 Level Memphis Center
Tue 04:01:43 PM 34.6239 -91.7653 280° West 438 504 37,600 1,000 Climbing Memphis Center
Tue 04:02:43 PM 34.6431 -91.9097 279° West 433 498 38,000 200 Climbing Memphis Center
Tue 04:03:43 PM 34.6600 -92.0589 278° West 438 504 38,000  Level Memphis Center
Tue 04:04:43 PM 34.6786 -92.2058 279° West 443 510 38,000  Level Memphis Center
Tue 04:05:43 PM 34.6931 -92.3525 277° West 448 516 38,000  Level Memphis Center
Tue 04:06:43 PM 34.7072 -92.5119 276° West 448 516 38,000  Level Memphis Center
Tue 04:07:43 PM 34.7211 -92.6589 277° West 448 516 38,000  Level Memphis Center
Tue 04:08:43 PM 34.7350 -92.8058 277° West 448 516 38,000  Level Memphis Center
Tue 04:09:43 PM 34.7469 -92.9503 276° West 443 510 38,000  Level Memphis Center
Tue 04:10:43 PM 34.7606 -93.0947 277° West 443 510 38,000  Level Memphis Center
Tue 04:11:43 PM 34.7739 -93.2419 276° West 443 510 38,000  Level Memphis Center
Tue 04:12:43 PM 34.7872 -93.3839 277° West 443 510 38,000  Level Memphis Center
Tue 04:13:43 PM 34.8022 -93.5286 277° West 438 504 38,000  Level Memphis Center
Tue 04:14:43 PM 34.8131 -93.6731 275° West 438 504 38,000  Level Memphis Center
Tue 04:15:43 PM 34.8281 -93.8206 277° West 438 504 38,000  Level Memphis Center
Tue 04:16:43 PM 34.8383 -93.9650 275° West 438 504 38,000  Level Memphis Center
Tue 04:17:43 PM 34.8489 -94.1072 275° West 438 504 38,000  Level Memphis Center
Tue 04:19:45 PM 34.8761 -94.4094 276° West 447 514 38,000  Level Fort Worth Center
Tue 04:20:45 PM 34.8878 -94.5558 276° West 441 507 38,000  Level Fort Worth Center
Tue 04:21:45 PM 34.8994 -94.7072 275° West 446 513 38,000  Level Fort Worth Center
Tue 04:22:45 PM 34.9108 -94.8536 275° West 446 513 38,000  Level Fort Worth Center
Tue 04:23:45 PM 34.9222 -95.0003 275° West 437 503 38,000  Level Fort Worth Center
Tue 04:24:45 PM 34.9333 -95.1494 275° West 444 511 38,000  Level Fort Worth Center
Tue 04:25:45 PM 34.9442 -95.2908 275° West 439 505 38,000  Level Fort Worth Center
Tue 04:26:45 PM 34.9528 -95.4375 274° West 433 498 38,000  Level Fort Worth Center
Tue 04:27:45 PM 34.9653 -95.5842 276° West 433 498 38,000  Level Fort Worth Center
Tue 04:28:45 PM 34.9736 -95.7286 274° West 438 504 38,000  Level Fort Worth Center
Tue 04:29:45 PM 34.9839 -95.8728 275° West 438 504 38,000  Level Fort Worth Center
Tue 04:30:45 PM 34.9875 -96.0019 272° West 438 504 38,000  Level Fort Worth Center
Tue 04:31:45 PM 34.9972 -96.1436 275° West 438 504 38,000  Level Fort Worth Center
Tue 04:32:45 PM 35.0069 -96.2881 275° West 438 504 38,000  Level Fort Worth Center
Tue 04:33:45 PM 35.0167 -96.4272 275° West 428 493 38,000  Level Fort Worth Center
Tue 04:34:45 PM 35.0239 -96.5667 274° West 423 487 38,000  Level Fort Worth Center
Tue 04:35:45 PM 35.0331 -96.7036 275° West 418 481 38,000  Level Fort Worth Center
Tue 04:36:45 PM 35.0400 -96.8431 274° West 418 481 38,000  Level Fort Worth Center
Tue 04:37:45 PM 35.0489 -96.9850 274° West 418 481 38,000  Level Fort Worth Center
Tue 04:38:45 PM 35.0575 -97.1269 274° West 424 488 38,000  Level Fort Worth Center
Tue 04:39:45 PM 35.0642 -97.2689 273° West 424 488 38,000  Level Fort Worth Center
Tue 04:40:45 PM 35.0683 -97.4136 272° West 424 488 38,000  Level Fort Worth Center
Tue 04:41:45 PM 35.0744 -97.5606 273° West 424 488 38,000  Level Fort Worth Center
Tue 04:42:45 PM 35.0825 -97.7128 274° West 424 488 38,000  Level Fort Worth Center
Tue 04:43:45 PM 35.0883 -97.8575 273° West 424 488 38,000  Level Fort Worth Center
Tue 04:44:45 PM 35.0919 -98.0022 272° West 424 488 38,000  Level Fort Worth Center
Tue 04:45:45 PM 35.0975 -98.1469 273° West 424 488 38,000  Level Fort Worth Center
Tue 04:46:45 PM 35.1028 -98.2892 273° West 424 488 38,000  Level Fort Worth Center
Tue 04:47:45 PM 35.1081 -98.4339 273° West 424 488 38,000  Level Fort Worth Center
Tue 04:48:45 PM 35.1111 -98.5581 272° West 418 481 38,000  Level Fort Worth Center
Tue 04:49:45 PM 35.1158 -98.7081 272° West 418 481 38,000  Level Fort Worth Center
Tue 04:50:45 PM 35.1183 -98.8553 271° West 424 488 38,000  Level Fort Worth Center
Tue 04:51:45 PM 35.1231 -98.9897 272° West 419 482 38,000  Level Fort Worth Center
Tue 04:52:45 PM 35.1253 -99.1372 271° West 419 482 38,000  Level Fort Worth Center
Tue 04:53:45 PM 35.1294 -99.2717 272° West 419 482 38,000  Level Fort Worth Center
Tue 04:54:45 PM 35.1317 -99.4139 271° West 419 482 38,000  Level Fort Worth Center
Tue 04:55:53 PM 35.1364 -99.5503 272° West 413 475 38,000  Level Albuquerque Center
Tue 04:56:55 PM 35.1383 -99.6908 271° West 412 474 38,000  Level Albuquerque Center
Tue 04:57:57 PM 35.1428 -99.8603 272° West 414 476 38,000  Level Albuquerque Center
Tue 04:58:58 PM 35.1436 -99.9986 270° West 409 471 38,000  Level Albuquerque Center
Tue 05:00:00 PM 35.1458 -100.1378 271° West 409 471 38,000  Level Albuquerque Center
Tue 05:01:02 PM 35.1489 -100.2775 272° West 409 471 38,000  Level Albuquerque Center
Tue 05:02:04 PM 35.1500 -100.4242 271° West 410 472 38,000  Level Albuquerque Center
Tue 05:03:05 PM 35.1522 -100.5633 271° West 411 473 38,000  Level Albuquerque Center
Tue 05:04:07 PM 35.1544 -100.7039 271° West 413 475 38,000  Level Albuquerque Center
Tue 05:05:09 PM 35.1556 -100.8456 271° West 417 480 38,000  Level Albuquerque Center
Tue 05:06:11 PM 35.1556 -100.9842 270° West 412 474 38,000  Level Albuquerque Center
Tue 05:07:12 PM 35.1567 -101.1233 271° West 411 473 38,000  Level Albuquerque Center
Tue 05:08:14 PM 35.1575 -101.2917 270° West 412 474 38,000  Level Albuquerque Center
Tue 05:09:16 PM 35.1633 -101.4303 273° West 416 479 38,000  Level Albuquerque Center
Tue 05:10:18 PM 35.1628 -101.5681 270° West 409 471 38,000  Level Albuquerque Center
Tue 05:11:19 PM 35.1594 -101.7175 268° West 408 470 38,000  Level Albuquerque Center
Tue 05:12:21 PM 35.1608 -101.8589 271° West 410 472 38,000  Level Albuquerque Center
Tue 05:13:23 PM 35.1589 -102.0011 269° West 413 475 38,000  Level Albuquerque Center
Tue 05:14:25 PM 35.1583 -102.1414 270° West 414 476 38,000  Level Albuquerque Center
Tue 05:15:26 PM 35.1592 -102.2825 270° West 415 478 38,000  Level Albuquerque Center
Tue 05:16:28 PM 35.1581 -102.4233 269° West 416 479 38,000  Level Albuquerque Center
Tue 05:17:30 PM 35.1586 -102.5636 270° West 414 476 38,000  Level Albuquerque Center
Tue 05:18:31 PM 35.1569 -102.7303 269° West 411 473 38,000  Level Albuquerque Center
Tue 05:19:33 PM 35.1567 -102.8689 270° West 409 471 38,000  Level Albuquerque Center
Tue 05:20:35 PM 35.1553 -103.0100 269° West 405 466 38,000  Level Albuquerque Center
Tue 05:21:37 PM 35.1544 -103.1486 270° West 404 465 38,000  Level Albuquerque Center
Tue 05:22:39 PM 35.1533 -103.2861 269° West 402 463 38,000  Level Albuquerque Center
Tue 05:23:40 PM 35.1514 -103.4239 269° West 402 463 38,000  Level Albuquerque Center
Tue 05:24:42 PM 35.1494 -103.5606 269° West 401 461 38,000  Level Albuquerque Center
Tue 05:25:44 PM 35.1475 -103.6992 269° West 403 464 38,000  Level Albuquerque Center
Tue 05:26:46 PM 35.1450 -103.8356 269° West 400 460 38,000  Level Albuquerque Center
Tue 05:27:48 PM 35.1433 -103.9872 269° West 406 467 38,000  Level Albuquerque Center
Tue 05:28:49 PM 35.1408 -104.1256 269° West 409 471 38,000  Level Albuquerque Center
Tue 05:29:52 PM 35.1386 -104.2656 269° West 412 474 38,000  Level Albuquerque Center
Tue 05:30:53 PM 35.1361 -104.4053 269° West 413 475 38,000  Level Albuquerque Center
Tue 05:31:55 PM 35.1317 -104.5703 268° West 407 468 38,000  Level Albuquerque Center
Tue 05:32:57 PM 35.1269 -104.7108 268° West 411 473 38,000  Level Albuquerque Center
Tue 05:33:58 PM 35.1242 -104.8492 269° West 407 468 38,000  Level Albuquerque Center
Tue 05:35:00 PM 35.1217 -104.9892 269° West 408 470 38,000  Level Albuquerque Center
Tue 05:36:02 PM 35.1181 -105.1264 268° West 404 465 38,000  Level Albuquerque Center
Tue 05:37:04 PM 35.1147 -105.2650 268° West 403 464 38,000  Level Albuquerque Center
Tue 05:38:06 PM 35.1103 -105.4033 268° West 404 465 38,000  Level Albuquerque Center
Tue 05:39:07 PM 35.1064 -105.5422 268° West 405 466 38,000  Level Albuquerque Center
Tue 05:40:09 PM 35.1011 -105.7044 268° West 406 467 38,000  Level Albuquerque Center
Tue 05:41:11 PM 35.0978 -105.8453 268° West 410 472 38,000  Level Albuquerque Center
Tue 05:42:13 PM 35.0933 -105.9847 268° West 411 473 38,000  Level Albuquerque Center
Tue 05:43:15 PM 35.0869 -106.1242 267° West 411 473 38,000  Level Albuquerque Center
Tue 05:44:17 PM 35.0836 -106.2656 268° West 416 479 38,000  Level Albuquerque Center
Tue 05:45:18 PM 35.0778 -106.4078 267° West 418 481 38,000  Level Albuquerque Center
Tue 05:46:20 PM 35.0717 -106.5517 267° West 416 479 38,000  Level Albuquerque Center
Tue 05:47:22 PM 35.0658 -106.6936 267° West 418 481 38,000  Level Albuquerque Center
Tue 05:48:24 PM 35.0614 -106.8325 268° West 411 473 38,000  Level Albuquerque Center
Tue 05:49:25 PM 35.0550 -107.0000 267° West 408 470 38,000  Level Albuquerque Center
Tue 05:50:27 PM 35.0489 -107.1400 267° West 414 476 38,000  Level Albuquerque Center
Tue 05:51:29 PM 35.0431 -107.2617 267° West 417 480 38,000  Level Albuquerque Center
Tue 05:52:31 PM 35.0350 -107.4311 267° West 417 480 38,000  Level Albuquerque Center
Tue 05:53:33 PM 35.0286 -107.5742 267° West 422 486 38,000  Level Albuquerque Center
Tue 05:54:34 PM 35.0228 -107.7156 267° West 422 486 38,000  Level Albuquerque Center
Tue 05:55:36 PM 35.0147 -107.8581 266° West 421 484 38,000  Level Albuquerque Center
Tue 05:56:38 PM 35.0072 -107.9975 266° West 417 480 38,000  Level Albuquerque Center
Tue 05:57:40 PM 35.0006 -108.1372 267° West 414 476 38,000  Level Albuquerque Center
Tue 05:58:42 PM 34.9956 -108.2786 268° West 416 479 38,000  Level Albuquerque Center
Tue 05:59:43 PM 34.9856 -108.4467 266° West 416 479 38,000  Level Albuquerque Center
Tue 06:00:45 PM 34.9792 -108.5858 267° West 413 475 38,000  Level Albuquerque Center
Tue 06:01:47 PM 34.9717 -108.7281 266° West 418 481 38,000  Level Albuquerque Center
Tue 06:02:49 PM 34.9631 -108.8689 266° West 417 480 38,000  Level Albuquerque Center
Tue 06:03:50 PM 34.9547 -109.0100 266° West 418 481 38,000  Level Albuquerque Center
Tue 06:04:52 PM 34.9467 -109.1525 266° West 421 484 38,000  Level Albuquerque Center
Tue 06:05:54 PM 34.9383 -109.2944 266° West 420 483 38,000  Level Albuquerque Center
Tue 06:06:56 PM 34.9272 -109.4639 265° West 421 484 38,000 -49 Level Albuquerque Center
Tue 06:07:57 PM 34.9194 -109.5869 266° West 419 482 37,900  Descending Albuquerque Center
Tue 06:08:59 PM 34.9089 -109.7542 266° West 418 481 38,000 48 Climbing Albuquerque Center
Tue 06:10:01 PM 34.8994 -109.8942 265° West 420 483 38,000  Level Albuquerque Center
Tue 06:11:03 PM 34.8903 -110.0358 266° West 422 486 38,000  Level Albuquerque Center
Tue 06:12:05 PM 34.8806 -110.1922 266° West 422 486 38,000  Level Albuquerque Center
Tue 06:13:06 PM 34.8714 -110.3336 266° West 421 484 38,000  Level Albuquerque Center
Tue 06:14:08 PM 34.8561 -110.4744 263° West 422 486 38,000  Level Albuquerque Center
Tue 06:15:10 PM 34.8389 -110.6156 262° West 423 487 38,000  Level Albuquerque Center
Tue 06:16:12 PM 34.8214 -110.7550 261° West 421 484 38,000  Level Albuquerque Center
Tue 06:17:14 PM 34.8053 -110.8939 262° West 419 482 38,000  Level Albuquerque Center
Tue 06:18:16 PM 34.7842 -111.0603 261° West 417 480 38,000  Level Albuquerque Center
Tue 06:19:17 PM 34.7675 -111.2000 262° West 419 482 38,000  Level Albuquerque Center
Tue 06:20:19 PM 34.7497 -111.3400 261° West 420 483 38,000  Level Albuquerque Center
Tue 06:21:21 PM 34.7319 -111.4817 261° West 425 489 38,000  Level Albuquerque Center
Tue 06:22:23 PM 34.7142 -111.6233 261° West 426 490 38,000  Level Albuquerque Center
Tue 06:23:25 PM 34.6964 -111.7656 261° West 428 493 38,000  Level Albuquerque Center
Tue 06:24:27 PM 34.6739 -111.9342 261° West 426 490 38,000  Level Albuquerque Center
Tue 06:25:28 PM 34.6553 -112.0750 261° West 426 490 38,000  Level Albuquerque Center
Tue 06:26:30 PM 34.6367 -112.2158 261° West 426 490 38,000  Level Albuquerque Center
Tue 06:27:32 PM 34.6181 -112.3578 261° West 426 490 38,000  Level Albuquerque Center
Tue 06:28:34 PM 34.5994 -112.4992 261° West 425 489 38,000  Level Albuquerque Center
Tue 06:29:35 PM 34.5806 -112.6394 261° West 423 487 38,000  Level Albuquerque Center
Tue 06:30:37 PM 34.5606 -112.7803 260° West 424 488 38,000  Level Albuquerque Center
Tue 06:31:39 PM 34.5381 -112.9483 261° West 423 487 38,000  Level Albuquerque Center
Tue 06:32:41 PM 34.5183 -113.0878 260° West 422 486 38,000  Level Albuquerque Center
Tue 06:33:42 PM 34.4989 -113.2289 261° West 424 488 38,000  Level Albuquerque Center
Tue 06:34:44 PM 34.4781 -113.3692 260° West 424 488 38,000  Level Albuquerque Center
Tue 06:35:46 PM 34.4592 -113.5106 261° West 426 490 38,000  Level Albuquerque Center
Tue 06:36:47 PM 34.4375 -113.6531 260° West 422 486 38,000  Level Albuquerque Center
Tue 06:37:49 PM 34.4161 -113.7956 260° West 427 491 38,000  Level Albuquerque Center
Tue 06:38:51 PM 34.3914 -113.9642 260° West 425 489 38,000  Level Albuquerque Center
Tue 06:39:53 PM 34.3708 -114.1053 260° West 425 489 38,000  Level Albuquerque Center
Tue 06:40:54 PM 34.3514 -114.2469 261° West 426 490 38,000  Level Albuquerque Center
Tue 06:41:56 PM 34.3347 -114.3886 262° West 425 489 38,000  Level Albuquerque Center
Tue 06:42:42 PM 34.3217 -114.4983 262° West 428 493 38,000  Level Los Angeles Center
Tue 06:43:44 PM 34.3031 -114.6400 261° West 428 493 38,000  Level Los Angeles Center
Tue 06:44:46 PM 34.2844 -114.7836 261° West 433 498 38,000  Level Los Angeles Center
Tue 06:45:48 PM 34.2658 -114.9275 261° West 434 499 38,000  Level Los Angeles Center
Tue 06:46:50 PM 34.2419 -115.1014 261° West 436 502 38,000  Level Los Angeles Center
Tue 06:47:52 PM 34.2228 -115.2475 261° West 440 506 38,000  Level Los Angeles Center
Tue 06:48:54 PM 34.2036 -115.3922 261° West 439 505 38,000  Level Los Angeles Center
Tue 06:49:56 PM 34.1825 -115.5381 260° West 441 507 38,000  Level Los Angeles Center
Tue 06:50:58 PM 34.1622 -115.6797 260° West 434 499 38,000  Level Los Angeles Center
Tue 06:52:00 PM 34.1428 -115.8222 261° West 432 497 38,000 -919 Level Los Angeles Center
Tue 06:53:02 PM 34.1192 -115.9950 261° West 435 501 36,100 -2,129 Descending Los Angeles Center
Tue 06:54:04 PM 34.0975 -116.1394 260° West 438 504 33,600 -2,274 Descending Los Angeles Center
Tue 06:55:06 PM 34.0767 -116.2878 260° West 447 514 31,400 -2,468 Descending Los Angeles Center
Tue 06:56:08 PM 34.0550 -116.4258 259° West 429 494 28,500 -2,468 Descending Los Angeles Center
Tue 06:57:10 PM 34.0378 -116.5606 261° West 415 478 26,300 -2,323 Descending Los Angeles Center
Tue 06:58:12 PM 34.0133 -116.7161 259° West 402 463 23,700 -2,274 Descending Los Angeles Center
Tue 06:59:14 PM 33.9947 -116.8419 260° West 391 450 21,600 -2,000 Descending Los Angeles Center
Tue 07:00:18 PM 33.9764 -116.9631 260° West 380 437 19,500 -1,857 Descending Los Angeles Center
Tue 07:01:20 PM 33.9572 -117.0817 259° West 369 425 17,700 -1,452 Descending Los Angeles Center
Tue 07:02:22 PM 33.9458 -117.1889 263° West 342 394 16,500 -1,533 Descending Los Angeles Center
Tue 07:03:37 PM 33.9333 -117.3333 264° West 302 348 14,200 -1,644 Descending Southern California TRACON
Tue 07:04:37 PM 33.9500 -117.4167 284° West 299 344 12,800 -1,250 Descending Southern California TRACON
Tue 07:05:37 PM 33.9833 -117.5167 292° West 300 345 11,700 -1,250 Descending Southern California TRACON
Tue 07:06:37 PM 34.0167 -117.6000 296° West 289 333 10,300 -893 Descending Southern California TRACON
Tue 07:07:38 PM 34.0167 -117.7000 270° West 279 321 9,900 -744 Descending Southern California TRACON
Tue 07:08:38 PM 34.0167 -117.7833 270° West 271 312 8,800 -1,150 Descending Southern California TRACON
Tue 07:09:38 PM 34.0000 -117.8667 256° West 260 299 7,600 -1,150 Descending Southern California TRACON
Tue 07:10:38 PM 34.0000 -117.9500 270° West 249 287 6,500 -1,000 Descending Southern California TRACON
Tue 07:11:38 PM 33.9833 -118.0333 256° West 243 280 5,600 -950 Descending Southern California TRACON
Tue 07:12:38 PM 33.9833 -118.1167 270° West 238 274 4,600 -1,091 Descending Southern California TRACON
Tue 07:13:39 PM 33.9667 -118.2000 256° West 216 249 3,400 -1,091 Descending Southern California TRACON
Tue 07:14:39 PM 33.9667 -118.2667 270° West 194 223 2,400 -950 Descending Southern California TRACON
Tue 07:15:39 PM 33.9667 -118.3167 270° West 153 176 1,500 -750 Descending Southern California TRACON
Tue 07:16:39 PM 33.9500 -118.3667 248° West 138 159 900 -414 Descending Southern California TRACON
Tue 07:18:04 PM 33.8842 -118.4439 224° Southwest 203 234 500 -282 Descending Los Angeles Center

Login

Don't have an account? Register now (free) for customized features, flight alerts, and more!